Terminal Aerodrome Forecast
Issued by NWS Lake Charles, LA

Home | Current Version | Previous Version | Text Only | Print | Product List | Glossary On
Versions: 1 2 3 4 5 6 7 8 9 10 11 12 13 14 15 16
000
FTUS44 KLCH 231400 AAA
TAFAEX
TAF AMD
KAEX 231431Z 2315/2412 VRB03KT 6SM HZ SCT250
     FM231700 03005KT P6SM VCSH SCT025 BKN035
     FM232100 36005KT P6SM VCTS SCT030CB BKN050
     FM240100 00000KT P6SM SCT040 BKN100=

USA.gov is the U.S. government's official web portal to all federal, state and local government web resources and services.